createdAt,value
2023-05-11T00:01:25.054Z,100.00
2023-05-11T00:03:52.310Z,100.00
2023-05-11T00:06:22.015Z,100.00
2023-05-11T00:08:51.250Z,100.00
2023-05-11T00:11:19.052Z,100.00
2023-05-11T00:13:46.192Z,100.00
2023-05-11T00:16:13.102Z,100.00
2023-05-11T00:18:40.159Z,100.00
2023-05-11T00:21:07.580Z,100.00
2023-05-11T00:23:34.305Z,100.00
2023-05-11T00:26:01.282Z,100.00
2023-05-11T00:28:33.051Z,100.00
2023-05-11T00:30:59.943Z,100.00
2023-05-11T00:33:26.915Z,100.00
2023-05-11T00:35:53.855Z,100.00
2023-05-11T00:38:23.153Z,100.00
2023-05-11T00:40:51.172Z,100.00
2023-05-11T00:43:18.082Z,100.00
2023-05-11T00:45:48.303Z,100.00
2023-05-11T00:48:16.575Z,100.00
2023-05-11T00:50:45.780Z,100.00
2023-05-11T00:53:16.210Z,100.00
2023-05-11T00:55:43.183Z,100.00
2023-05-11T00:58:10.123Z,100.00
2023-05-11T01:00:37.050Z,100.00
2023-05-11T01:03:07.555Z,100.00
2023-05-11T01:05:44.264Z,100.00
2023-05-11T01:08:37.298Z,100.00
2023-05-11T01:11:25.696Z,100.00
2023-05-11T01:14:00.166Z,100.00
2023-05-11T01:16:28.950Z,100.00
2023-05-11T01:19:17.000Z,100.00
2023-05-11T01:21:47.543Z,100.00
2023-05-11T01:24:44.171Z,100.00
2023-05-11T01:27:40.762Z,100.00
2023-05-11T01:30:38.476Z,100.00
2023-05-11T01:33:12.179Z,100.00
2023-05-11T01:35:43.529Z,100.00
2023-05-11T01:38:14.375Z,100.00
2023-05-11T01:40:43.255Z,100.00
2023-05-11T01:43:14.281Z,100.00
2023-05-11T01:45:48.549Z,100.00
2023-05-11T01:48:20.369Z,100.00
2023-05-11T01:50:49.775Z,100.00
2023-05-11T01:53:18.489Z,100.00
2023-05-11T01:55:49.947Z,100.00
2023-05-11T01:58:18.226Z,100.00
2023-05-11T02:00:46.457Z,100.00
2023-05-11T02:03:15.575Z,100.00
2023-05-11T02:05:44.071Z,100.00
2023-05-11T02:08:12.951Z,100.00
2023-05-11T02:10:42.108Z,100.00
2023-05-11T02:13:13.763Z,100.00
2023-05-11T02:15:42.728Z,100.00
2023-05-11T02:18:14.253Z,100.00
2023-05-11T02:20:43.740Z,100.00
2023-05-11T02:23:13.897Z,100.00
2023-05-11T02:25:42.193Z,100.00
2023-05-11T02:28:11.798Z,100.00
2023-05-11T02:30:46.854Z,100.00
2023-05-11T02:33:22.584Z,100.00
2023-05-11T02:35:51.949Z,100.00
2023-05-11T02:38:19.699Z,100.00
2023-05-11T02:40:50.867Z,100.00
2023-05-11T02:43:31.778Z,100.00
2023-05-11T02:46:12.255Z,100.00
2023-05-11T02:48:43.530Z,100.00
2023-05-11T02:51:12.815Z,100.00
2023-05-11T02:53:41.743Z,100.00
2023-05-11T02:56:09.646Z,100.00
2023-05-11T02:58:42.426Z,100.00
2023-05-11T03:01:09.842Z,100.00
2023-05-11T03:03:37.004Z,100.00
2023-05-11T03:06:04.283Z,100.00
2023-05-11T03:08:31.154Z,100.00
2023-05-11T03:10:59.477Z,100.00
2023-05-11T03:13:29.607Z,100.00
2023-05-11T03:15:57.835Z,100.00
2023-05-11T03:18:26.788Z,100.00
2023-05-11T03:20:53.968Z,100.00
2023-05-11T03:23:22.110Z,100.00
2023-05-11T03:25:49.792Z,100.00
2023-05-11T03:28:19.141Z,100.00
2023-05-11T03:30:48.459Z,100.00
2023-05-11T03:33:18.228Z,100.00
2023-05-11T03:35:50.079Z,100.00
2023-05-11T03:38:18.691Z,100.00
2023-05-11T03:40:49.666Z,100.00
2023-05-11T03:43:19.731Z,100.00
2023-05-11T03:45:53.811Z,100.00
2023-05-11T03:48:23.688Z,100.00
2023-05-11T03:50:51.441Z,100.00
2023-05-11T03:53:19.623Z,100.00
2023-05-11T03:55:51.003Z,100.00
2023-05-11T03:58:27.389Z,100.00
2023-05-11T04:00:57.549Z,100.00
2023-05-11T04:03:25.119Z,100.00
2023-05-11T04:05:54.631Z,100.00
2023-05-11T04:08:21.783Z,100.00
2023-05-11T04:10:51.842Z,100.00
2023-05-11T04:13:19.175Z,100.00
2023-05-11T04:15:46.557Z,100.00
2023-05-11T04:18:15.713Z,100.00
2023-05-11T04:20:45.983Z,100.00
2023-05-11T04:23:12.772Z,100.00
2023-05-11T04:25:39.599Z,100.00
2023-05-11T04:28:06.408Z,100.00
2023-05-11T04:30:33.754Z,100.00
2023-05-11T04:33:00.757Z,100.00
2023-05-11T04:35:27.660Z,100.00
2023-05-11T04:38:09.749Z,100.00
2023-05-11T04:40:39.277Z,100.00
2023-05-11T04:43:08.609Z,100.00
2023-05-11T04:45:35.675Z,100.00
2023-05-11T04:48:03.439Z,100.00
2023-05-11T04:50:37.551Z,100.00
2023-05-11T04:53:09.523Z,100.00
2023-05-11T04:55:38.797Z,100.00
2023-05-11T04:58:05.453Z,100.00
2023-05-11T05:00:32.703Z,100.00
2023-05-11T05:02:59.495Z,100.00
2023-05-11T05:05:26.916Z,100.00
2023-05-11T05:08:09.181Z,100.00
2023-05-11T05:10:36.355Z,100.00
2023-05-11T05:13:03.414Z,100.00
2023-05-11T05:15:32.587Z,100.00
2023-05-11T05:17:59.582Z,100.00
2023-05-11T05:20:27.040Z,100.00
2023-05-11T05:23:00.380Z,100.00
2023-05-11T05:25:27.538Z,100.00
2023-05-11T05:27:54.816Z,100.00
2023-05-11T05:30:21.591Z,100.00
2023-05-11T05:32:51.456Z,100.00
2023-05-11T05:35:18.768Z,100.00
2023-05-11T05:37:48.035Z,100.00
2023-05-11T05:40:15.612Z,100.00
2023-05-11T05:42:42.587Z,100.00
2023-05-11T05:45:12.463Z,100.00
2023-05-11T05:47:43.521Z,100.00
2023-05-11T05:50:12.853Z,100.00
2023-05-11T05:52:39.604Z,100.00
2023-05-11T05:55:09.504Z,100.00
2023-05-11T05:57:36.245Z,100.00
2023-05-11T06:00:07.166Z,100.00
2023-05-11T06:02:33.915Z,100.00
2023-05-11T06:05:02.934Z,100.00
2023-05-11T06:07:30.101Z,100.00
2023-05-11T06:09:56.916Z,100.00
2023-05-11T06:12:23.596Z,100.00
2023-05-11T06:14:52.868Z,100.00
2023-05-11T06:17:19.650Z,100.00
2023-05-11T06:19:47.536Z,100.00
2023-05-11T06:22:14.308Z,100.00
2023-05-11T06:24:41.132Z,100.00
2023-05-11T06:27:08.057Z,100.00
2023-05-11T06:29:35.356Z,100.00
2023-05-11T06:32:02.225Z,100.00
2023-05-11T06:34:29.216Z,100.00
2023-05-11T06:37:10.853Z,100.00
2023-05-11T06:39:37.860Z,100.00
2023-05-11T06:42:08.331Z,100.00
2023-05-11T06:44:35.332Z,100.00
2023-05-11T06:47:02.403Z,100.00
2023-05-11T06:50:52.807Z,100.00
2023-05-11T06:52:22.737Z,100.00
2023-05-11T06:54:51.218Z,100.00
2023-05-11T06:57:20.769Z,100.00
2023-05-11T06:59:51.951Z,99.33
2023-05-11T07:02:24.034Z,98.55
2023-05-11T07:04:51.134Z,98.38
2023-05-11T07:07:20.393Z,98.11
2023-05-11T07:09:48.394Z,98.10
2023-05-11T07:12:15.550Z,97.99
2023-05-11T07:14:46.338Z,97.34
2023-05-11T07:17:16.251Z,97.55
2023-05-11T07:19:43.505Z,97.58
2023-05-11T07:22:34.703Z,97.90
2023-05-11T07:25:01.752Z,97.81
2023-05-11T07:27:29.275Z,97.83
2023-05-11T07:30:21.696Z,97.72
2023-05-11T07:32:49.127Z,97.48
2023-05-11T07:35:20.067Z,97.30
2023-05-11T07:37:48.119Z,97.06
2023-05-11T07:40:15.142Z,96.82
2023-05-11T07:42:42.097Z,96.53
2023-05-11T07:45:12.449Z,94.87
2023-05-11T07:47:39.357Z,95.08
2023-05-11T07:50:07.454Z,95.13
2023-05-11T07:52:34.501Z,95.21
2023-05-11T07:55:01.245Z,95.28
2023-05-11T07:57:30.618Z,95.46
2023-05-11T07:59:57.788Z,95.29
2023-05-11T08:02:25.037Z,94.98
2023-05-11T08:04:53.165Z,94.72
2023-05-11T08:07:20.266Z,94.41
2023-05-11T08:09:47.922Z,94.40
2023-05-11T08:12:15.406Z,94.39
2023-05-11T08:14:50.355Z,93.81
2023-05-11T08:17:19.860Z,94.39
2023-05-11T08:19:56.165Z,94.06
2023-05-11T08:22:23.516Z,94.09
2023-05-11T08:24:54.582Z,94.03
2023-05-11T08:27:21.525Z,93.66
2023-05-11T08:29:51.945Z,93.75
2023-05-11T08:32:21.722Z,93.53
2023-05-11T08:34:51.771Z,93.45
2023-05-11T08:37:19.651Z,93.08
2023-05-11T08:39:48.032Z,93.13
2023-05-11T08:42:22.294Z,93.18
2023-05-11T08:44:50.448Z,93.16
2023-05-11T08:47:23.251Z,93.08
2023-05-11T08:49:53.141Z,93.04
2023-05-11T08:52:20.303Z,92.94
2023-05-11T08:54:48.006Z,92.88
2023-05-11T08:57:15.292Z,93.21
2023-05-11T08:59:45.986Z,93.33
2023-05-11T09:02:21.739Z,93.72
2023-05-11T09:04:51.149Z,93.69
2023-05-11T09:07:18.847Z,93.73
2023-05-11T09:09:49.820Z,93.96
2023-05-11T09:12:19.733Z,93.43
2023-05-11T09:14:48.171Z,93.48
2023-05-11T09:17:16.951Z,93.42
2023-05-11T09:20:10.305Z,93.42
2023-05-11T09:22:46.872Z,93.19
2023-05-11T09:25:15.661Z,92.76
2023-05-11T09:27:46.501Z,92.41
2023-05-11T09:33:08.424Z,91.83
2023-05-11T09:35:36.624Z,91.48
2023-05-11T09:38:11.490Z,91.05
2023-05-11T09:40:56.816Z,90.77
2023-05-11T09:43:24.764Z,89.65
2023-05-11T09:45:56.182Z,88.92
2023-05-11T09:48:35.898Z,88.16
2023-05-11T09:51:06.342Z,87.78
2023-05-11T09:53:53.173Z,87.41
2023-05-11T09:56:19.762Z,86.30
2023-05-11T09:58:57.312Z,85.89
2023-05-11T10:01:32.897Z,85.17
2023-05-11T10:04:17.675Z,83.83
2023-05-11T10:06:53.723Z,83.03
2023-05-11T10:09:24.770Z,82.11
2023-05-11T10:11:53.578Z,80.84
2023-05-11T10:14:22.757Z,79.54
2023-05-11T10:16:50.122Z,78.89
2023-05-11T10:19:19.850Z,77.83
2023-05-11T10:21:46.915Z,76.54
2023-05-11T10:24:20.370Z,76.99
2023-05-11T10:26:48.106Z,77.48
2023-05-11T10:29:14.960Z,78.43
2023-05-11T10:31:42.369Z,78.52
2023-05-11T10:34:10.712Z,79.07
2023-05-11T10:36:37.725Z,79.11
2023-05-11T10:39:04.312Z,79.93
2023-05-11T10:41:31.134Z,80.52
2023-05-11T10:44:10.388Z,80.74
2023-05-11T10:46:58.905Z,80.83
2023-05-11T10:49:28.435Z,81.20
2023-05-11T10:52:10.255Z,81.09
2023-05-11T10:54:54.309Z,81.47
2023-05-11T10:57:45.390Z,81.82
2023-05-11T11:00:47.682Z,81.63
2023-05-11T11:03:15.615Z,81.49
2023-05-11T11:05:44.148Z,81.07
2023-05-11T11:08:11.202Z,80.15
2023-05-11T11:10:46.652Z,78.50
2023-05-11T11:13:17.551Z,77.53
2023-05-11T11:16:10.663Z,76.41
2023-05-11T11:18:37.757Z,75.48
2023-05-11T11:21:04.822Z,74.68
2023-05-11T11:23:45.125Z,74.68
2023-05-11T11:26:18.884Z,73.11
2023-05-11T11:28:54.482Z,71.20
2023-05-11T11:31:32.478Z,71.69
2023-05-11T11:34:19.894Z,71.54
2023-05-11T11:36:55.883Z,71.60
2023-05-11T11:39:25.473Z,71.94
2023-05-11T11:42:06.730Z,72.23
2023-05-11T11:44:37.764Z,71.71
2023-05-11T11:47:21.548Z,71.09
2023-05-11T11:49:51.521Z,70.73
2023-05-11T11:52:27.514Z,71.09
2023-05-11T11:54:59.970Z,70.14
2023-05-11T11:57:32.696Z,69.40
2023-05-11T12:00:08.917Z,66.46
2023-05-11T12:02:35.716Z,66.51
2023-05-11T12:05:12.917Z,65.91
2023-05-11T12:07:48.790Z,65.18
2023-05-11T12:10:20.644Z,64.54
2023-05-11T12:12:49.507Z,64.26
2023-05-11T12:15:30.075Z,63.12
2023-05-11T12:18:02.792Z,63.45
2023-05-11T12:20:29.939Z,63.62
2023-05-11T12:22:56.805Z,64.20
2023-05-11T12:25:26.040Z,64.82
2023-05-11T12:28:05.670Z,66.02
2023-05-11T12:30:34.029Z,65.93
2023-05-11T12:33:04.299Z,66.35
2023-05-11T12:35:33.437Z,66.93
2023-05-11T12:38:02.470Z,66.93
2023-05-11T12:40:30.310Z,67.34
2023-05-11T12:42:59.410Z,67.21
2023-05-11T12:45:27.592Z,67.40
2023-05-11T12:47:56.356Z,65.48
2023-05-11T12:50:26.096Z,66.35
2023-05-11T12:52:53.094Z,66.21
2023-05-11T12:55:57.412Z,64.01
2023-05-11T12:58:24.241Z,64.71
2023-05-11T13:00:56.000Z,65.17
2023-05-11T13:03:28.198Z,65.42
2023-05-11T13:06:27.642Z,66.46
2023-05-11T13:08:54.325Z,66.90
2023-05-11T13:11:26.942Z,67.00
2023-05-11T13:14:00.245Z,67.45
2023-05-11T13:16:29.206Z,67.47
2023-05-11T13:19:06.552Z,67.68
2023-05-11T13:21:36.378Z,67.65
2023-05-11T13:24:05.718Z,68.17
2023-05-11T13:26:34.816Z,68.26
2023-05-11T13:29:10.931Z,68.55
2023-05-11T13:31:44.823Z,68.39
2023-05-11T13:34:12.209Z,67.90
2023-05-11T13:36:39.493Z,68.20
2023-05-11T13:39:07.227Z,68.67
2023-05-11T13:41:33.876Z,68.27
2023-05-11T13:44:00.911Z,69.01
2023-05-11T13:46:27.566Z,69.65
2023-05-11T13:48:54.904Z,69.72
2023-05-11T13:51:26.315Z,69.69
2023-05-11T13:53:53.064Z,69.85
2023-05-11T13:56:21.263Z,69.56
2023-05-11T13:58:47.984Z,69.52
2023-05-11T14:01:14.669Z,69.56
2023-05-11T14:03:41.759Z,69.57
2023-05-11T14:06:08.473Z,69.64
2023-05-11T14:08:35.133Z,69.80
2023-05-11T14:11:04.708Z,69.96
2023-05-11T14:13:31.675Z,70.96
2023-05-11T14:16:01.565Z,71.83
2023-05-11T14:18:28.525Z,72.90
2023-05-11T14:20:55.503Z,73.69
2023-05-11T14:23:22.143Z,74.84
2023-05-11T14:25:48.776Z,75.21
2023-05-11T14:28:15.384Z,75.64
2023-05-11T14:30:44.676Z,76.30
2023-05-11T14:33:11.465Z,76.67
2023-05-11T14:35:39.918Z,77.09
2023-05-11T14:38:06.892Z,77.42
2023-05-11T14:40:33.592Z,77.33
2023-05-11T14:43:00.160Z,77.76
2023-05-11T14:45:27.042Z,77.90
2023-05-11T14:47:53.706Z,78.17
2023-05-11T14:50:22.500Z,78.09
2023-05-11T14:52:49.067Z,78.16
2023-05-11T14:55:15.980Z,78.42
2023-05-11T14:57:43.440Z,78.51
2023-05-11T15:00:11.326Z,78.36
2023-05-11T15:02:37.837Z,78.58
2023-05-11T15:05:10.540Z,79.61
2023-05-11T15:07:38.679Z,79.06
2023-05-11T15:10:06.394Z,79.12
2023-05-11T15:12:33.519Z,79.09
2023-05-11T15:15:00.774Z,80.79
2023-05-11T15:17:29.667Z,79.85
2023-05-11T15:19:56.274Z,79.44
2023-05-11T15:22:25.486Z,79.45
2023-05-11T15:24:52.419Z,79.33
2023-05-11T15:27:21.933Z,79.61
2023-05-11T15:29:53.221Z,79.66
2023-05-11T15:32:20.646Z,79.83
2023-05-11T15:34:58.710Z,79.83
2023-05-11T15:37:26.517Z,79.64
2023-05-11T15:39:53.138Z,79.69
2023-05-11T15:42:19.751Z,79.76
2023-05-11T15:44:46.375Z,79.90
2023-05-11T15:47:13.036Z,80.03
2023-05-11T15:49:39.686Z,80.34
2023-05-11T15:52:10.279Z,80.52
2023-05-11T15:54:39.058Z,80.85
2023-05-11T15:57:05.719Z,80.99
2023-05-11T15:59:35.457Z,80.98
2023-05-11T16:02:05.416Z,81.34
2023-05-11T16:04:32.311Z,81.47
2023-05-11T16:06:59.060Z,81.46
2023-05-11T16:09:26.315Z,81.89
2023-05-11T16:11:55.306Z,82.11
2023-05-11T16:14:22.283Z,82.04
2023-05-11T16:16:49.305Z,82.25
2023-05-11T16:19:16.202Z,82.43
2023-05-11T16:21:43.810Z,82.05
2023-05-11T16:24:10.504Z,82.08
2023-05-11T16:26:37.263Z,82.19
2023-05-11T16:29:06.479Z,82.18
2023-05-11T16:31:35.621Z,82.37
2023-05-11T16:34:02.811Z,82.56
2023-05-11T16:36:30.438Z,82.48
2023-05-11T16:38:57.178Z,82.29
2023-05-11T16:41:25.283Z,82.54
2023-05-11T16:43:51.900Z,82.64
2023-05-11T16:46:18.659Z,81.93
2023-05-11T16:48:45.559Z,82.40
2023-05-11T16:51:12.229Z,82.12
2023-05-11T16:53:38.822Z,82.16
2023-05-11T16:56:33.346Z,82.31
2023-05-11T16:59:04.734Z,82.26
2023-05-11T17:01:32.085Z,82.50
2023-05-11T17:04:01.208Z,82.61
2023-05-11T17:06:28.528Z,82.96
2023-05-11T17:08:58.165Z,82.79
2023-05-11T17:11:24.928Z,83.31
2023-05-11T17:13:51.614Z,83.33
2023-05-11T17:16:18.489Z,83.65
2023-05-11T17:18:46.448Z,83.86
2023-05-11T17:21:13.158Z,83.93
2023-05-11T17:23:39.773Z,84.15
2023-05-11T17:26:12.780Z,84.58
2023-05-11T17:28:44.673Z,84.43
2023-05-11T17:31:15.552Z,84.73
2023-05-11T17:33:42.292Z,84.83
2023-05-11T17:36:09.964Z,85.24
2023-05-11T17:38:41.656Z,85.37
2023-05-11T17:41:09.129Z,85.73
2023-05-11T17:43:38.084Z,85.72
2023-05-11T17:46:04.942Z,86.32
2023-05-11T17:48:32.160Z,86.31
2023-05-11T17:50:59.085Z,86.46
2023-05-11T17:53:26.014Z,86.90
2023-05-11T17:55:53.066Z,87.07
2023-05-11T17:58:19.979Z,87.03
2023-05-11T18:00:49.187Z,87.16
2023-05-11T18:03:19.349Z,87.52
2023-05-11T18:05:49.091Z,87.48
2023-05-11T18:08:16.322Z,87.88
2023-05-11T18:10:43.146Z,87.89
2023-05-11T18:13:09.968Z,88.14
2023-05-11T18:15:37.218Z,88.49
2023-05-11T18:18:03.932Z,88.72
2023-05-11T18:20:32.940Z,88.92
2023-05-11T18:22:59.771Z,88.98
2023-05-11T18:25:28.099Z,88.93
2023-05-11T18:27:54.743Z,89.35
2023-05-11T18:30:21.656Z,89.40
2023-05-11T18:32:48.546Z,89.45
2023-05-11T18:35:17.424Z,89.59
2023-05-11T18:37:44.492Z,89.58
2023-05-11T18:40:11.764Z,89.59
2023-05-11T18:42:38.298Z,89.65
2023-05-11T18:45:05.797Z,89.90
2023-05-11T18:47:38.364Z,89.93
2023-05-11T18:50:05.488Z,89.80
2023-05-11T18:52:32.131Z,89.54
2023-05-11T18:54:58.887Z,89.37
2023-05-11T18:57:25.610Z,89.38
2023-05-11T18:59:52.575Z,89.45
2023-05-11T19:02:19.373Z,89.08
2023-05-11T19:04:45.995Z,89.14
2023-05-11T19:07:16.555Z,89.18
2023-05-11T19:09:43.679Z,89.31
2023-05-11T19:12:10.461Z,89.30
2023-05-11T19:14:37.569Z,89.29
2023-05-11T19:17:06.688Z,89.50
2023-05-11T19:19:34.243Z,89.66
2023-05-11T19:22:00.980Z,90.09
2023-05-11T19:24:28.237Z,89.89
2023-05-11T19:27:06.782Z,90.14
2023-05-11T19:29:34.953Z,90.43
2023-05-11T19:32:01.754Z,90.53
2023-05-11T19:34:28.569Z,90.21
2023-05-11T19:36:55.189Z,90.57
2023-05-11T19:39:21.805Z,90.65
2023-05-11T19:41:48.376Z,91.01
2023-05-11T19:44:15.753Z,91.21
2023-05-11T19:46:46.997Z,91.29
2023-05-11T19:49:15.629Z,91.32
2023-05-11T19:51:43.354Z,91.78
2023-05-11T19:54:11.265Z,91.67
2023-05-11T19:56:38.339Z,91.68
2023-05-11T19:59:05.062Z,91.81
2023-05-11T20:01:35.531Z,91.88
2023-05-11T20:04:02.436Z,92.00
2023-05-11T20:06:30.493Z,92.02
2023-05-11T20:08:57.536Z,92.08
2023-05-11T20:11:25.436Z,92.08
2023-05-11T20:13:53.781Z,92.41
2023-05-11T20:16:20.764Z,92.46
2023-05-11T20:18:50.044Z,92.60
2023-05-11T20:21:16.911Z,92.49
2023-05-11T20:23:46.126Z,92.66
2023-05-11T20:26:15.182Z,92.69
2023-05-11T20:28:41.924Z,92.61
2023-05-11T20:31:12.421Z,92.99
2023-05-11T20:36:09.740Z,93.23
2023-05-11T20:38:36.644Z,93.41
2023-05-11T20:41:05.714Z,93.50
2023-05-11T20:43:37.663Z,93.68
2023-05-11T20:46:05.766Z,93.69
2023-05-11T20:48:40.436Z,93.93
2023-05-11T20:51:07.965Z,93.82
2023-05-11T20:53:34.897Z,94.08
2023-05-11T20:56:04.471Z,94.58
2023-05-11T20:58:31.839Z,94.40
2023-05-11T21:00:59.356Z,94.65
2023-05-11T21:03:26.942Z,94.83
2023-05-11T21:05:54.202Z,95.01
2023-05-11T21:08:21.576Z,95.51
2023-05-11T21:10:48.582Z,95.52
2023-05-11T21:13:18.566Z,95.57
2023-05-11T21:15:45.289Z,95.82
2023-05-11T21:18:15.136Z,95.92
2023-05-11T21:20:42.342Z,96.02
2023-05-11T21:23:11.828Z,95.98
2023-05-11T21:25:41.300Z,96.42
2023-05-11T21:28:11.543Z,96.30
2023-05-11T21:30:38.634Z,96.33
2023-05-11T21:33:05.789Z,96.55
2023-05-11T21:35:34.788Z,96.56
2023-05-11T21:38:04.520Z,96.95
2023-05-11T21:40:36.311Z,96.75
2023-05-11T21:43:03.121Z,97.03
2023-05-11T21:45:30.309Z,96.97
2023-05-11T21:48:00.029Z,96.95
2023-05-11T21:50:27.173Z,96.81
2023-05-11T21:52:54.181Z,96.93
2023-05-11T21:55:21.259Z,96.92
2023-05-11T21:57:48.089Z,96.94
2023-05-11T22:00:22.545Z,96.83
2023-05-11T22:02:52.766Z,96.94
2023-05-11T22:05:20.136Z,96.89
2023-05-11T22:07:47.170Z,96.89
2023-05-11T22:10:14.217Z,97.13
2023-05-11T22:12:41.135Z,97.03
2023-05-11T22:15:08.943Z,96.93
2023-05-11T22:17:39.565Z,97.13
2023-05-11T22:20:09.983Z,96.79
2023-05-11T22:22:39.753Z,97.08
2023-05-11T22:25:07.975Z,97.05
2023-05-11T22:27:34.906Z,97.26
2023-05-11T22:30:04.170Z,97.49
2023-05-11T22:32:31.765Z,97.53
2023-05-11T22:35:00.446Z,98.09
2023-05-11T22:37:30.148Z,98.02
2023-05-11T22:39:59.524Z,97.92
2023-05-11T22:42:26.388Z,98.24
2023-05-11T22:44:53.685Z,97.99
2023-05-11T22:47:20.696Z,98.37
2023-05-11T22:49:47.640Z,98.39
2023-05-11T22:52:14.664Z,98.25
2023-05-11T22:54:41.740Z,98.75
2023-05-11T22:57:08.991Z,98.46
2023-05-11T22:59:36.144Z,98.43
2023-05-11T23:02:04.292Z,98.50
2023-05-11T23:04:32.403Z,98.47
2023-05-11T23:07:00.033Z,98.39
2023-05-11T23:09:29.246Z,98.66
2023-05-11T23:11:56.955Z,98.51
2023-05-11T23:14:24.267Z,98.71
2023-05-11T23:16:53.536Z,98.62
2023-05-11T23:19:30.712Z,98.63
2023-05-11T23:21:57.730Z,98.67
2023-05-11T23:24:24.706Z,98.84
2023-05-11T23:26:51.721Z,98.95
2023-05-11T23:29:20.724Z,99.00
2023-05-11T23:31:51.460Z,99.12
2023-05-11T23:34:18.369Z,98.99
2023-05-11T23:36:47.457Z,98.90
2023-05-11T23:39:14.788Z,98.86
2023-05-11T23:41:44.307Z,98.99
2023-05-11T23:44:13.846Z,98.88
2023-05-11T23:46:40.822Z,98.92
2023-05-11T23:49:09.974Z,98.92
2023-05-11T23:51:37.083Z,98.43
2023-05-11T23:54:03.954Z,98.39
2023-05-11T23:56:31.048Z,98.43
2023-05-11T23:58:57.864Z,98.13
